sensor_id;sensor_type;location;lat;lon;timestamp;P1;durP1;ratioP1;P2;durP2;ratioP2
74344;SDS011;62776;50.518;6.732;2023-02-08T00:01:53;9.15;;;8.20;;
74344;SDS011;62776;50.518;6.732;2023-02-08T00:04:40;7.65;;;6.80;;
74344;SDS011;62776;50.518;6.732;2023-02-08T00:07:26;8.95;;;7.95;;
74344;SDS011;62776;50.518;6.732;2023-02-08T00:10:14;9.55;;;8.55;;
74344;SDS011;62776;50.518;6.732;2023-02-08T00:13:00;8.88;;;7.97;;
74344;SDS011;62776;50.518;6.732;2023-02-08T00:15:47;7.05;;;6.32;;
74344;SDS011;62776;50.518;6.732;2023-02-08T00:18:38;6.82;;;6.22;;
74344;SDS011;62776;50.518;6.732;2023-02-08T00:21:32;7.10;;;6.50;;
74344;SDS011;62776;50.518;6.732;2023-02-08T00:24:20;7.47;;;6.55;;
74344;SDS011;62776;50.518;6.732;2023-02-08T00:27:07;7.78;;;6.35;;
74344;SDS011;62776;50.518;6.732;2023-02-08T00:29:53;7.03;;;6.32;;
74344;SDS011;62776;50.518;6.732;2023-02-08T00:32:44;6.00;;;5.38;;
74344;SDS011;62776;50.518;6.732;2023-02-08T00:35:32;6.70;;;6.10;;
74344;SDS011;62776;50.518;6.732;2023-02-08T00:38:19;6.47;;;5.80;;
74344;SDS011;62776;50.518;6.732;2023-02-08T00:41:05;5.60;;;4.93;;
74344;SDS011;62776;50.518;6.732;2023-02-08T00:43:54;5.35;;;4.85;;
74344;SDS011;62776;50.518;6.732;2023-02-08T00:46:41;6.20;;;5.60;;
74344;SDS011;62776;50.518;6.732;2023-02-08T00:49:27;5.95;;;5.32;;
74344;SDS011;62776;50.518;6.732;2023-02-08T00:52:13;6.03;;;5.53;;
74344;SDS011;62776;50.518;6.732;2023-02-08T00:55:01;5.25;;;4.75;;
74344;SDS011;62776;50.518;6.732;2023-02-08T00:57:53;5.25;;;4.75;;
74344;SDS011;62776;50.518;6.732;2023-02-08T01:00:42;6.37;;;5.20;;
74344;SDS011;62776;50.518;6.732;2023-02-08T01:03:32;5.63;;;5.13;;
74344;SDS011;62776;50.518;6.732;2023-02-08T01:06:19;5.20;;;4.68;;
74344;SDS011;62776;50.518;6.732;2023-02-08T01:09:16;5.32;;;4.68;;
74344;SDS011;62776;50.518;6.732;2023-02-08T01:12:02;5.57;;;5.07;;
74344;SDS011;62776;50.518;6.732;2023-02-08T01:14:49;5.43;;;4.90;;
74344;SDS011;62776;50.518;6.732;2023-02-08T01:17:35;5.18;;;4.68;;
74344;SDS011;62776;50.518;6.732;2023-02-08T01:20:22;5.30;;;4.80;;
74344;SDS011;62776;50.518;6.732;2023-02-08T01:23:09;5.10;;;4.63;;
74344;SDS011;62776;50.518;6.732;2023-02-08T01:25:58;6.25;;;5.30;;
74344;SDS011;62776;50.518;6.732;2023-02-08T01:28:44;4.93;;;3.88;;
74344;SDS011;62776;50.518;6.732;2023-02-08T01:31:36;5.78;;;4.53;;
74344;SDS011;62776;50.518;6.732;2023-02-08T01:34:23;5.82;;;4.95;;
74344;SDS011;62776;50.518;6.732;2023-02-08T01:37:11;5.35;;;4.85;;
74344;SDS011;62776;50.518;6.732;2023-02-08T01:39:58;8.82;;;4.70;;
74344;SDS011;62776;50.518;6.732;2023-02-08T01:42:50;5.57;;;4.70;;
74344;SDS011;62776;50.518;6.732;2023-02-08T01:45:36;5.00;;;4.57;;
74344;SDS011;62776;50.518;6.732;2023-02-08T01:48:43;5.78;;;4.72;;
74344;SDS011;62776;50.518;6.732;2023-02-08T01:51:30;5.70;;;5.10;;
74344;SDS011;62776;50.518;6.732;2023-02-08T01:54:21;5.65;;;5.15;;
74344;SDS011;62776;50.518;6.732;2023-02-08T01:57:16;6.35;;;5.38;;
74344;SDS011;62776;50.518;6.732;2023-02-08T02:00:17;5.88;;;5.38;;
74344;SDS011;62776;50.518;6.732;2023-02-08T02:03:09;4.30;;;3.90;;
74344;SDS011;62776;50.518;6.732;2023-02-08T02:06:17;4.97;;;4.57;;
74344;SDS011;62776;50.518;6.732;2023-02-08T02:09:15;5.40;;;4.90;;
74344;SDS011;62776;50.518;6.732;2023-02-08T02:15:02;5.55;;;5.05;;
74344;SDS011;62776;50.518;6.732;2023-02-08T02:17:51;5.00;;;4.50;;
74344;SDS011;62776;50.518;6.732;2023-02-08T02:20:46;6.38;;;4.65;;
74344;SDS011;62776;50.518;6.732;2023-02-08T02:33:51;5.65;;;5.07;;
74344;SDS011;62776;50.518;6.732;2023-02-08T02:39:53;5.22;;;4.75;;
74344;SDS011;62776;50.518;6.732;2023-02-08T02:43:00;7.38;;;5.13;;
74344;SDS011;62776;50.518;6.732;2023-02-08T02:52:07;6.00;;;4.65;;
74344;SDS011;62776;50.518;6.732;2023-02-08T02:54:56;5.65;;;4.80;;
74344;SDS011;62776;50.518;6.732;2023-02-08T02:57:50;5.43;;;4.93;;
74344;SDS011;62776;50.518;6.732;2023-02-08T03:00:39;5.43;;;4.93;;
74344;SDS011;62776;50.518;6.732;2023-02-08T03:03:26;6.30;;;5.70;;
74344;SDS011;62776;50.518;6.732;2023-02-08T03:06:17;5.22;;;4.72;;
74344;SDS011;62776;50.518;6.732;2023-02-08T03:16:15;6.25;;;5.72;;
74344;SDS011;62776;50.518;6.732;2023-02-08T03:19:06;9.00;;;6.30;;
74344;SDS011;62776;50.518;6.732;2023-02-08T03:22:10;7.32;;;6.53;;
74344;SDS011;62776;50.518;6.732;2023-02-08T03:25:16;6.63;;;5.82;;
74344;SDS011;62776;50.518;6.732;2023-02-08T03:35:24;6.75;;;5.63;;
74344;SDS011;62776;50.518;6.732;2023-02-08T03:38:21;7.13;;;6.43;;
74344;SDS011;62776;50.518;6.732;2023-02-08T03:41:14;5.70;;;5.20;;
74344;SDS011;62776;50.518;6.732;2023-02-08T03:44:22;6.00;;;5.45;;
74344;SDS011;62776;50.518;6.732;2023-02-08T03:47:17;6.22;;;5.30;;
74344;SDS011;62776;50.518;6.732;2023-02-08T03:50:09;6.43;;;5.78;;
74344;SDS011;62776;50.518;6.732;2023-02-08T03:53:02;6.75;;;5.72;;
74344;SDS011;62776;50.518;6.732;2023-02-08T03:55:52;6.45;;;5.75;;
74344;SDS011;62776;50.518;6.732;2023-02-08T03:58:52;5.82;;;5.32;;
74344;SDS011;62776;50.518;6.732;2023-02-08T04:01:45;5.50;;;5.00;;
74344;SDS011;62776;50.518;6.732;2023-02-08T04:04:42;6.30;;;5.70;;
74344;SDS011;62776;50.518;6.732;2023-02-08T04:07:31;6.30;;;5.70;;
74344;SDS011;62776;50.518;6.732;2023-02-08T04:10:17;5.93;;;5.43;;
74344;SDS011;62776;50.518;6.732;2023-02-08T04:13:09;5.45;;;4.95;;
74344;SDS011;62776;50.518;6.732;2023-02-08T04:15:59;6.20;;;5.30;;
74344;SDS011;62776;50.518;6.732;2023-02-08T04:18:46;5.38;;;4.85;;
74344;SDS011;62776;50.518;6.732;2023-02-08T04:21:32;5.43;;;5.00;;
74344;SDS011;62776;50.518;6.732;2023-02-08T04:24:26;5.38;;;4.90;;
74344;SDS011;62776;50.518;6.732;2023-02-08T04:27:15;5.85;;;5.32;;
74344;SDS011;62776;50.518;6.732;2023-02-08T04:30:03;5.63;;;5.13;;
74344;SDS011;62776;50.518;6.732;2023-02-08T04:32:50;5.57;;;5.07;;
74344;SDS011;62776;50.518;6.732;2023-02-08T04:35:40;6.32;;;5.72;;
74344;SDS011;62776;50.518;6.732;2023-02-08T04:38:27;4.40;;;4.00;;
74344;SDS011;62776;50.518;6.732;2023-02-08T04:41:13;7.10;;;5.13;;
74344;SDS011;62776;50.518;6.732;2023-02-08T04:44:00;5.68;;;5.10;;
74344;SDS011;62776;50.518;6.732;2023-02-08T04:46:47;6.50;;;5.57;;
74344;SDS011;62776;50.518;6.732;2023-02-08T04:49:41;5.32;;;4.75;;
74344;SDS011;62776;50.518;6.732;2023-02-08T04:52:28;5.50;;;4.78;;
74344;SDS011;62776;50.518;6.732;2023-02-08T04:55:15;5.90;;;5.10;;
74344;SDS011;62776;50.518;6.732;2023-02-08T04:58:07;5.77;;;5.17;;
74344;SDS011;62776;50.518;6.732;2023-02-08T05:00:54;5.60;;;4.97;;
74344;SDS011;62776;50.518;6.732;2023-02-08T05:03:44;7.70;;;6.57;;
74344;SDS011;62776;50.518;6.732;2023-02-08T05:06:33;8.07;;;7.00;;
74344;SDS011;62776;50.518;6.732;2023-02-08T05:09:20;5.57;;;5.07;;
74344;SDS011;62776;50.518;6.732;2023-02-08T05:12:09;5.75;;;4.93;;
74344;SDS011;62776;50.518;6.732;2023-02-08T05:14:55;5.13;;;4.72;;
74344;SDS011;62776;50.518;6.732;2023-02-08T05:17:48;5.55;;;4.90;;
74344;SDS011;62776;50.518;6.732;2023-02-08T05:20:35;5.88;;;5.25;;
74344;SDS011;62776;50.518;6.732;2023-02-08T05:23:24;5.45;;;4.95;;
74344;SDS011;62776;50.518;6.732;2023-02-08T05:26:13;5.30;;;4.80;;
74344;SDS011;62776;50.518;6.732;2023-02-08T05:29:01;5.57;;;5.00;;
74344;SDS011;62776;50.518;6.732;2023-02-08T05:31:49;4.63;;;4.22;;
74344;SDS011;62776;50.518;6.732;2023-02-08T05:34:52;5.18;;;4.50;;
74344;SDS011;62776;50.518;6.732;2023-02-08T05:37:38;5.43;;;4.75;;
74344;SDS011;62776;50.518;6.732;2023-02-08T05:40:31;5.32;;;4.82;;
74344;SDS011;62776;50.518;6.732;2023-02-08T05:43:18;4.78;;;4.38;;
74344;SDS011;62776;50.518;6.732;2023-02-08T05:46:10;5.22;;;4.82;;
74344;SDS011;62776;50.518;6.732;2023-02-08T05:48:57;6.00;;;5.40;;
74344;SDS011;62776;50.518;6.732;2023-02-08T05:51:46;4.90;;;4.50;;
74344;SDS011;62776;50.518;6.732;2023-02-08T05:54:34;5.00;;;4.60;;
74344;SDS011;62776;50.518;6.732;2023-02-08T05:57:21;6.03;;;5.07;;
74344;SDS011;62776;50.518;6.732;2023-02-08T06:00:07;5.00;;;4.53;;
74344;SDS011;62776;50.518;6.732;2023-02-08T06:02:54;6.18;;;5.63;;
74344;SDS011;62776;50.518;6.732;2023-02-08T06:06:00;4.93;;;4.53;;
74344;SDS011;62776;50.518;6.732;2023-02-08T06:08:55;5.20;;;4.72;;
74344;SDS011;62776;50.518;6.732;2023-02-08T06:11:42;5.15;;;3.80;;
74344;SDS011;62776;50.518;6.732;2023-02-08T06:14:28;5.30;;;4.80;;
74344;SDS011;62776;50.518;6.732;2023-02-08T06:17:29;5.45;;;4.60;;
74344;SDS011;62776;50.518;6.732;2023-02-08T06:20:17;4.80;;;4.40;;
74344;SDS011;62776;50.518;6.732;2023-02-08T06:23:09;6.60;;;4.32;;
74344;SDS011;62776;50.518;6.732;2023-02-08T06:26:14;7.63;;;4.88;;
74344;SDS011;62776;50.518;6.732;2023-02-08T06:29:01;6.40;;;5.00;;
74344;SDS011;62776;50.518;6.732;2023-02-08T06:31:50;4.95;;;4.50;;
74344;SDS011;62776;50.518;6.732;2023-02-08T06:34:36;5.90;;;4.32;;
74344;SDS011;62776;50.518;6.732;2023-02-08T06:37:25;4.20;;;3.67;;
74344;SDS011;62776;50.518;6.732;2023-02-08T06:40:27;4.30;;;3.90;;
74344;SDS011;62776;50.518;6.732;2023-02-08T06:43:13;4.35;;;3.95;;
74344;SDS011;62776;50.518;6.732;2023-02-08T06:46:03;4.97;;;4.57;;
74344;SDS011;62776;50.518;6.732;2023-02-08T06:48:52;5.57;;;4.95;;
74344;SDS011;62776;50.518;6.732;2023-02-08T06:51:39;6.28;;;5.68;;
74344;SDS011;62776;50.518;6.732;2023-02-08T06:54:26;7.55;;;5.68;;
74344;SDS011;62776;50.518;6.732;2023-02-08T06:57:13;4.70;;;4.30;;
74344;SDS011;62776;50.518;6.732;2023-02-08T07:00:00;5.00;;;4.55;;
74344;SDS011;62776;50.518;6.732;2023-02-08T07:02:47;6.03;;;4.80;;
74344;SDS011;62776;50.518;6.732;2023-02-08T07:05:36;5.63;;;4.57;;
74344;SDS011;62776;50.518;6.732;2023-02-08T07:08:23;5.07;;;4.55;;
74344;SDS011;62776;50.518;6.732;2023-02-08T07:11:10;14.90;;;13.07;;
74344;SDS011;62776;50.518;6.732;2023-02-08T07:13:59;10.38;;;8.68;;
74344;SDS011;62776;50.518;6.732;2023-02-08T07:16:48;8.40;;;7.53;;
74344;SDS011;62776;50.518;6.732;2023-02-08T07:19:34;4.40;;;4.00;;
74344;SDS011;62776;50.518;6.732;2023-02-08T07:22:22;4.80;;;4.07;;
74344;SDS011;62776;50.518;6.732;2023-02-08T07:25:16;5.43;;;3.65;;
74344;SDS011;62776;50.518;6.732;2023-02-08T07:28:08;3.95;;;3.58;;
74344;SDS011;62776;50.518;6.732;2023-02-08T07:30:54;3.80;;;3.40;;
74344;SDS011;62776;50.518;6.732;2023-02-08T07:33:41;3.88;;;3.53;;
74344;SDS011;62776;50.518;6.732;2023-02-08T07:36:27;3.80;;;3.50;;
74344;SDS011;62776;50.518;6.732;2023-02-08T07:39:15;5.30;;;3.75;;
74344;SDS011;62776;50.518;6.732;2023-02-08T07:42:01;3.88;;;3.50;;
74344;SDS011;62776;50.518;6.732;2023-02-08T07:44:55;4.93;;;3.40;;
74344;SDS011;62776;50.518;6.732;2023-02-08T07:47:41;3.75;;;3.45;;
74344;SDS011;62776;50.518;6.732;2023-02-08T07:50:46;3.97;;;3.58;;
74344;SDS011;62776;50.518;6.732;2023-02-08T07:53:32;3.70;;;3.40;;
74344;SDS011;62776;50.518;6.732;2023-02-08T07:56:20;5.68;;;2.80;;
74344;SDS011;62776;50.518;6.732;2023-02-08T07:59:09;3.15;;;2.85;;
74344;SDS011;62776;50.518;6.732;2023-02-08T08:01:57;3.88;;;2.95;;
74344;SDS011;62776;50.518;6.732;2023-02-08T08:04:49;2.95;;;2.60;;
74344;SDS011;62776;50.518;6.732;2023-02-08T08:07:39;2.90;;;2.63;;
74344;SDS011;62776;50.518;6.732;2023-02-08T08:10:26;2.85;;;2.65;;
74344;SDS011;62776;50.518;6.732;2023-02-08T08:13:22;2.92;;;2.63;;
74344;SDS011;62776;50.518;6.732;2023-02-08T08:16:08;3.00;;;2.80;;
74344;SDS011;62776;50.518;6.732;2023-02-08T08:18:56;3.30;;;3.03;;
74344;SDS011;62776;50.518;6.732;2023-02-08T08:21:42;3.28;;;2.60;;
74344;SDS011;62776;50.518;6.732;2023-02-08T08:24:30;2.30;;;2.20;;
74344;SDS011;62776;50.518;6.732;2023-02-08T08:27:19;2.80;;;2.50;;
74344;SDS011;62776;50.518;6.732;2023-02-08T08:30:14;4.72;;;2.60;;
74344;SDS011;62776;50.518;6.732;2023-02-08T08:33:11;2.70;;;2.50;;
74344;SDS011;62776;50.518;6.732;2023-02-08T08:35:58;2.97;;;2.78;;
74344;SDS011;62776;50.518;6.732;2023-02-08T08:38:44;2.65;;;2.45;;
74344;SDS011;62776;50.518;6.732;2023-02-08T08:41:31;2.60;;;2.40;;
74344;SDS011;62776;50.518;6.732;2023-02-08T08:44:19;4.18;;;2.78;;
74344;SDS011;62776;50.518;6.732;2023-02-08T08:47:05;2.60;;;2.40;;
74344;SDS011;62776;50.518;6.732;2023-02-08T08:49:55;5.55;;;4.15;;
74344;SDS011;62776;50.518;6.732;2023-02-08T08:52:41;2.95;;;2.70;;
74344;SDS011;62776;50.518;6.732;2023-02-08T08:55:27;3.58;;;2.30;;
74344;SDS011;62776;50.518;6.732;2023-02-08T08:58:13;2.33;;;2.13;;
74344;SDS011;62776;50.518;6.732;2023-02-08T09:01:01;3.00;;;2.17;;
74344;SDS011;62776;50.518;6.732;2023-02-08T09:03:47;2.17;;;2.08;;
74344;SDS011;62776;50.518;6.732;2023-02-08T09:06:34;2.30;;;2.05;;
74344;SDS011;62776;50.518;6.732;2023-02-08T09:09:20;3.92;;;2.00;;
74344;SDS011;62776;50.518;6.732;2023-02-08T09:12:07;2.58;;;2.25;;
74344;SDS011;62776;50.518;6.732;2023-02-08T09:14:53;2.45;;;2.25;;
74344;SDS011;62776;50.518;6.732;2023-02-08T09:17:39;3.65;;;2.30;;
74344;SDS011;62776;50.518;6.732;2023-02-08T09:20:26;2.50;;;2.30;;
74344;SDS011;62776;50.518;6.732;2023-02-08T09:23:13;2.92;;;2.63;;
74344;SDS011;62776;50.518;6.732;2023-02-08T09:26:06;2.42;;;2.22;;
74344;SDS011;62776;50.518;6.732;2023-02-08T09:28:54;2.53;;;2.33;;
74344;SDS011;62776;50.518;6.732;2023-02-08T09:31:42;2.63;;;2.42;;
74344;SDS011;62776;50.518;6.732;2023-02-08T09:34:30;2.83;;;2.55;;
74344;SDS011;62776;50.518;6.732;2023-02-08T09:37:17;2.60;;;2.40;;
74344;SDS011;62776;50.518;6.732;2023-02-08T09:40:03;2.40;;;2.20;;
74344;SDS011;62776;50.518;6.732;2023-02-08T09:42:54;2.60;;;2.40;;
74344;SDS011;62776;50.518;6.732;2023-02-08T09:46:04;5.28;;;4.07;;
74344;SDS011;62776;50.518;6.732;2023-02-08T09:48:58;2.70;;;2.50;;
74344;SDS011;62776;50.518;6.732;2023-02-08T09:51:51;2.88;;;2.65;;
74344;SDS011;62776;50.518;6.732;2023-02-08T09:54:44;3.20;;;2.90;;
74344;SDS011;62776;50.518;6.732;2023-02-08T09:57:39;2.33;;;2.13;;
74344;SDS011;62776;50.518;6.732;2023-02-08T10:00:38;10.07;;;8.52;;
74344;SDS011;62776;50.518;6.732;2023-02-08T10:03:34;8.02;;;6.75;;
74344;SDS011;62776;50.518;6.732;2023-02-08T10:06:32;3.42;;;2.67;;
74344;SDS011;62776;50.518;6.732;2023-02-08T10:09:25;5.05;;;2.97;;
74344;SDS011;62776;50.518;6.732;2023-02-08T10:28:10;5.55;;;5.10;;
74344;SDS011;62776;50.518;6.732;2023-02-08T10:37:35;1.90;;;1.80;;
74344;SDS011;62776;50.518;6.732;2023-02-08T10:40:33;4.35;;;2.33;;
74344;SDS011;62776;50.518;6.732;2023-02-08T10:43:25;2.60;;;2.40;;
74344;SDS011;62776;50.518;6.732;2023-02-08T10:46:24;2.95;;;2.75;;
74344;SDS011;62776;50.518;6.732;2023-02-08T10:52:28;3.40;;;3.10;;
74344;SDS011;62776;50.518;6.732;2023-02-08T10:55:16;3.85;;;3.50;;
74344;SDS011;62776;50.518;6.732;2023-02-08T10:58:04;3.10;;;2.80;;
74344;SDS011;62776;50.518;6.732;2023-02-08T11:01:03;3.05;;;2.85;;
74344;SDS011;62776;50.518;6.732;2023-02-08T11:04:05;3.47;;;3.17;;
74344;SDS011;62776;50.518;6.732;2023-02-08T11:06:54;2.47;;;2.13;;
74344;SDS011;62776;50.518;6.732;2023-02-08T11:09:42;2.88;;;2.10;;
74344;SDS011;62776;50.518;6.732;2023-02-08T11:12:28;1.95;;;1.83;;
74344;SDS011;62776;50.518;6.732;2023-02-08T11:15:26;2.33;;;1.90;;
74344;SDS011;62776;50.518;6.732;2023-02-08T11:18:39;1.95;;;1.85;;
74344;SDS011;62776;50.518;6.732;2023-02-08T11:21:39;1.77;;;1.67;;
74344;SDS011;62776;50.518;6.732;2023-02-08T11:24:31;1.70;;;1.60;;
74344;SDS011;62776;50.518;6.732;2023-02-08T11:30:20;1.80;;;1.70;;
74344;SDS011;62776;50.518;6.732;2023-02-08T11:33:15;2.00;;;1.80;;
74344;SDS011;62776;50.518;6.732;2023-02-08T11:36:11;1.90;;;1.35;;
74344;SDS011;62776;50.518;6.732;2023-02-08T11:39:02;2.30;;;1.77;;
74344;SDS011;62776;50.518;6.732;2023-02-08T11:42:02;1.45;;;1.40;;
74344;SDS011;62776;50.518;6.732;2023-02-08T11:44:49;1.55;;;1.45;;
74344;SDS011;62776;50.518;6.732;2023-02-08T11:47:37;2.28;;;1.50;;
74344;SDS011;62776;50.518;6.732;2023-02-08T11:50:35;1.27;;;1.20;;
74344;SDS011;62776;50.518;6.732;2023-02-08T11:53:28;2.28;;;1.70;;
74344;SDS011;62776;50.518;6.732;2023-02-08T11:56:22;2.85;;;1.40;;
74344;SDS011;62776;50.518;6.732;2023-02-08T11:59:18;2.47;;;1.40;;
74344;SDS011;62776;50.518;6.732;2023-02-08T12:05:24;1.42;;;1.33;;
74344;SDS011;62776;50.518;6.732;2023-02-08T12:14:45;1.23;;;1.20;;
74344;SDS011;62776;50.518;6.732;2023-02-08T12:21:40;1.50;;;1.40;;
74344;SDS011;62776;50.518;6.732;2023-02-08T12:24:16;1.17;;;1.10;;
74344;SDS011;62776;50.518;6.732;2023-02-08T12:27:39;1.42;;;1.30;;
74344;SDS011;62776;50.518;6.732;2023-02-08T12:30:43;1.60;;;1.50;;
74344;SDS011;62776;50.518;6.732;2023-02-08T12:50:05;1.55;;;1.45;;
74344;SDS011;62776;50.518;6.732;2023-02-08T12:53:08;1.65;;;1.55;;
74344;SDS011;62776;50.518;6.732;2023-02-08T12:56:13;1.30;;;1.20;;
74344;SDS011;62776;50.518;6.732;2023-02-08T12:59:04;1.98;;;1.55;;
74344;SDS011;62776;50.518;6.732;2023-02-08T13:01:53;1.95;;;1.75;;
74344;SDS011;62776;50.518;6.732;2023-02-08T13:04:51;1.52;;;1.42;;
74344;SDS011;62776;50.518;6.732;2023-02-08T13:07:46;1.75;;;1.65;;
74344;SDS011;62776;50.518;6.732;2023-02-08T13:10:41;1.50;;;1.40;;
74344;SDS011;62776;50.518;6.732;2023-02-08T13:13:37;1.50;;;1.40;;
74344;SDS011;62776;50.518;6.732;2023-02-08T13:16:30;1.92;;;1.55;;
74344;SDS011;62776;50.518;6.732;2023-02-08T13:19:31;1.65;;;1.55;;
74344;SDS011;62776;50.518;6.732;2023-02-08T13:22:36;1.30;;;1.20;;
74344;SDS011;62776;50.518;6.732;2023-02-08T13:25:33;1.65;;;1.55;;
74344;SDS011;62776;50.518;6.732;2023-02-08T13:28:22;1.55;;;1.45;;
74344;SDS011;62776;50.518;6.732;2023-02-08T13:31:15;1.50;;;1.40;;
74344;SDS011;62776;50.518;6.732;2023-02-08T13:37:28;1.65;;;1.55;;
74344;SDS011;62776;50.518;6.732;2023-02-08T13:40:24;1.50;;;1.40;;
74344;SDS011;62776;50.518;6.732;2023-02-08T13:46:06;4.10;;;3.28;;
74344;SDS011;62776;50.518;6.732;2023-02-08T13:48:56;1.70;;;1.60;;
74344;SDS011;62776;50.518;6.732;2023-02-08T13:51:50;3.00;;;1.73;;
74344;SDS011;62776;50.518;6.732;2023-02-08T13:54:38;1.60;;;1.50;;
74344;SDS011;62776;50.518;6.732;2023-02-08T14:00:59;1.75;;;1.45;;
74344;SDS011;62776;50.518;6.732;2023-02-08T14:04:14;1.85;;;1.73;;
74344;SDS011;62776;50.518;6.732;2023-02-08T14:06:54;3.70;;;1.63;;
74344;SDS011;62776;50.518;6.732;2023-02-08T14:10:23;1.95;;;1.73;;
74344;SDS011;62776;50.518;6.732;2023-02-08T14:19:23;1.67;;;1.50;;
74344;SDS011;62776;50.518;6.732;2023-02-08T14:24:59;2.22;;;1.83;;
74344;SDS011;62776;50.518;6.732;2023-02-08T14:27:49;2.03;;;1.80;;
74344;SDS011;62776;50.518;6.732;2023-02-08T14:30:43;2.53;;;2.33;;
74344;SDS011;62776;50.518;6.732;2023-02-08T14:33:41;2.22;;;2.03;;
74344;SDS011;62776;50.518;6.732;2023-02-08T14:36:41;2.15;;;1.92;;
74344;SDS011;62776;50.518;6.732;2023-02-08T14:39:28;1.85;;;1.75;;
74344;SDS011;62776;50.518;6.732;2023-02-08T14:45:39;2.97;;;2.00;;
74344;SDS011;62776;50.518;6.732;2023-02-08T14:48:29;2.90;;;2.17;;
74344;SDS011;62776;50.518;6.732;2023-02-08T14:51:27;2.10;;;1.90;;
74344;SDS011;62776;50.518;6.732;2023-02-08T14:57:22;2.78;;;2.58;;
74344;SDS011;62776;50.518;6.732;2023-02-08T15:00:18;2.70;;;2.50;;
74344;SDS011;62776;50.518;6.732;2023-02-08T15:03:20;2.50;;;2.28;;
74344;SDS011;62776;50.518;6.732;2023-02-08T15:06:20;4.50;;;3.20;;
74344;SDS011;62776;50.518;6.732;2023-02-08T15:09:24;3.40;;;3.08;;
74344;SDS011;62776;50.518;6.732;2023-02-08T15:12:33;9.25;;;3.33;;
74344;SDS011;62776;50.518;6.732;2023-02-08T15:18:25;2.47;;;2.28;;
74344;SDS011;62776;50.518;6.732;2023-02-08T15:21:16;3.28;;;1.88;;
74344;SDS011;62776;50.518;6.732;2023-02-08T15:24:16;2.50;;;2.13;;
74344;SDS011;62776;50.518;6.732;2023-02-08T15:27:24;2.22;;;2.03;;
74344;SDS011;62776;50.518;6.732;2023-02-08T15:30:21;3.80;;;2.15;;
74344;SDS011;62776;50.518;6.732;2023-02-08T15:33:14;2.08;;;1.92;;
74344;SDS011;62776;50.518;6.732;2023-02-08T15:36:07;3.08;;;2.22;;
74344;SDS011;62776;50.518;6.732;2023-02-08T15:42:26;3.33;;;1.80;;
74344;SDS011;62776;50.518;6.732;2023-02-08T15:45:24;6.70;;;1.98;;
74344;SDS011;62776;50.518;6.732;2023-02-08T15:48:14;2.35;;;2.15;;
74344;SDS011;62776;50.518;6.732;2023-02-08T15:51:00;2.60;;;1.80;;
74344;SDS011;62776;50.518;6.732;2023-02-08T15:53:49;2.50;;;2.30;;
74344;SDS011;62776;50.518;6.732;2023-02-08T15:56:37;3.90;;;2.33;;
74344;SDS011;62776;50.518;6.732;2023-02-08T15:59:37;2.03;;;1.83;;
74344;SDS011;62776;50.518;6.732;2023-02-08T16:02:28;2.40;;;2.22;;
74344;SDS011;62776;50.518;6.732;2023-02-08T16:05:20;3.47;;;2.08;;
74344;SDS011;62776;50.518;6.732;2023-02-08T16:08:27;2.17;;;1.98;;
74344;SDS011;62776;50.518;6.732;2023-02-08T16:11:20;2.30;;;2.10;;
74344;SDS011;62776;50.518;6.732;2023-02-08T16:14:15;2.25;;;1.70;;
74344;SDS011;62776;50.518;6.732;2023-02-08T16:17:04;2.45;;;2.25;;
74344;SDS011;62776;50.518;6.732;2023-02-08T16:20:22;2.08;;;1.90;;
74344;SDS011;62776;50.518;6.732;2023-02-08T16:23:22;3.75;;;2.58;;
74344;SDS011;62776;50.518;6.732;2023-02-08T16:26:25;1.80;;;1.70;;
74344;SDS011;62776;50.518;6.732;2023-02-08T16:32:05;1.88;;;1.73;;
74344;SDS011;62776;50.518;6.732;2023-02-08T16:35:12;2.25;;;2.05;;
74344;SDS011;62776;50.518;6.732;2023-02-08T16:38:08;2.50;;;1.98;;
74344;SDS011;62776;50.518;6.732;2023-02-08T16:41:03;2.60;;;2.40;;
74344;SDS011;62776;50.518;6.732;2023-02-08T16:44:13;2.58;;;2.38;;
74344;SDS011;62776;50.518;6.732;2023-02-08T16:47:26;2.13;;;1.92;;
74344;SDS011;62776;50.518;6.732;2023-02-08T16:50:28;2.60;;;2.40;;
74344;SDS011;62776;50.518;6.732;2023-02-08T16:53:16;2.42;;;2.22;;
74344;SDS011;62776;50.518;6.732;2023-02-08T16:56:02;3.15;;;2.35;;
74344;SDS011;62776;50.518;6.732;2023-02-08T16:58:53;2.55;;;2.17;;
74344;SDS011;62776;50.518;6.732;2023-02-08T17:01:39;2.30;;;2.10;;
74344;SDS011;62776;50.518;6.732;2023-02-08T17:04:29;3.20;;;2.50;;
74344;SDS011;62776;50.518;6.732;2023-02-08T17:07:19;4.70;;;4.20;;
74344;SDS011;62776;50.518;6.732;2023-02-08T17:10:07;4.55;;;2.83;;
74344;SDS011;62776;50.518;6.732;2023-02-08T17:13:02;3.42;;;3.13;;
74344;SDS011;62776;50.518;6.732;2023-02-08T17:15:56;4.78;;;3.92;;
74344;SDS011;62776;50.518;6.732;2023-02-08T17:18:45;5.00;;;4.22;;
74344;SDS011;62776;50.518;6.732;2023-02-08T17:21:32;5.32;;;4.82;;
74344;SDS011;62776;50.518;6.732;2023-02-08T17:24:25;4.43;;;3.47;;
74344;SDS011;62776;50.518;6.732;2023-02-08T17:27:12;3.13;;;2.80;;
74344;SDS011;62776;50.518;6.732;2023-02-08T17:30:00;3.28;;;3.00;;
74344;SDS011;62776;50.518;6.732;2023-02-08T17:32:51;2.90;;;2.67;;
74344;SDS011;62776;50.518;6.732;2023-02-08T17:35:43;3.03;;;2.83;;
74344;SDS011;62776;50.518;6.732;2023-02-08T17:38:31;2.80;;;2.60;;
74344;SDS011;62776;50.518;6.732;2023-02-08T17:41:19;3.03;;;2.75;;
74344;SDS011;62776;50.518;6.732;2023-02-08T17:44:11;2.72;;;2.53;;
74344;SDS011;62776;50.518;6.732;2023-02-08T17:46:59;3.25;;;2.95;;
74344;SDS011;62776;50.518;6.732;2023-02-08T17:49:45;2.83;;;2.63;;
74344;SDS011;62776;50.518;6.732;2023-02-08T17:52:31;2.60;;;2.40;;
74344;SDS011;62776;50.518;6.732;2023-02-08T17:55:20;3.00;;;2.40;;
74344;SDS011;62776;50.518;6.732;2023-02-08T17:58:10;5.20;;;2.22;;
74344;SDS011;62776;50.518;6.732;2023-02-08T18:00:59;2.40;;;2.20;;
74344;SDS011;62776;50.518;6.732;2023-02-08T18:03:47;2.28;;;2.10;;
74344;SDS011;62776;50.518;6.732;2023-02-08T18:06:35;2.72;;;2.53;;
74344;SDS011;62776;50.518;6.732;2023-02-08T18:09:21;2.95;;;2.63;;
74344;SDS011;62776;50.518;6.732;2023-02-08T18:12:08;8.30;;;2.80;;
74344;SDS011;62776;50.518;6.732;2023-02-08T18:14:55;4.50;;;2.60;;
74344;SDS011;62776;50.518;6.732;2023-02-08T18:17:41;3.22;;;2.92;;
74344;SDS011;62776;50.518;6.732;2023-02-08T18:20:32;2.67;;;2.47;;
74344;SDS011;62776;50.518;6.732;2023-02-08T18:23:20;5.47;;;2.55;;
74344;SDS011;62776;50.518;6.732;2023-02-08T18:26:10;3.25;;;2.95;;
74344;SDS011;62776;50.518;6.732;2023-02-08T18:28:58;3.15;;;2.65;;
74344;SDS011;62776;50.518;6.732;2023-02-08T18:31:49;2.80;;;2.53;;
74344;SDS011;62776;50.518;6.732;2023-02-08T18:34:43;3.28;;;2.90;;
74344;SDS011;62776;50.518;6.732;2023-02-08T18:37:31;4.40;;;2.88;;
74344;SDS011;62776;50.518;6.732;2023-02-08T18:40:19;3.50;;;3.20;;
74344;SDS011;62776;50.518;6.732;2023-02-08T18:43:05;6.35;;;4.80;;
74344;SDS011;62776;50.518;6.732;2023-02-08T18:46:03;8.05;;;4.97;;
74344;SDS011;62776;50.518;6.732;2023-02-08T18:48:56;12.70;;;7.95;;
74344;SDS011;62776;50.518;6.732;2023-02-08T18:51:45;27.02;;;17.17;;
74344;SDS011;62776;50.518;6.732;2023-02-08T18:54:32;4.88;;;4.38;;
74344;SDS011;62776;50.518;6.732;2023-02-08T18:57:23;3.90;;;3.60;;
74344;SDS011;62776;50.518;6.732;2023-02-08T19:00:09;2.40;;;2.20;;
74344;SDS011;62776;50.518;6.732;2023-02-08T19:02:57;2.65;;;2.40;;
74344;SDS011;62776;50.518;6.732;2023-02-08T19:05:48;4.45;;;2.50;;
74344;SDS011;62776;50.518;6.732;2023-02-08T19:08:34;3.63;;;3.28;;
74344;SDS011;62776;50.518;6.732;2023-02-08T19:11:26;3.35;;;3.03;;
74344;SDS011;62776;50.518;6.732;2023-02-08T19:14:20;4.25;;;3.85;;
74344;SDS011;62776;50.518;6.732;2023-02-08T19:17:11;3.83;;;3.45;;
74344;SDS011;62776;50.518;6.732;2023-02-08T19:19:57;4.28;;;3.10;;
74344;SDS011;62776;50.518;6.732;2023-02-08T19:22:44;3.63;;;3.33;;
74344;SDS011;62776;50.518;6.732;2023-02-08T19:25:34;4.70;;;4.30;;